sensor_id;sensor_type;location;lat;lon;timestamp;pressure;altitude;pressure_sealevel;temperature;humidity
69127;BME280;56688;50.234;19.292;2023-02-28T00:00:37;99751.19;;;-0.01;53.90
69127;BME280;56688;50.234;19.292;2023-02-28T00:03:04;99751.92;;;-0.01;54.43
69127;BME280;56688;50.234;19.292;2023-02-28T00:05:31;99753.56;;;-0.02;54.83
69127;BME280;56688;50.234;19.292;2023-02-28T00:07:58;99749.19;;;-0.05;55.27
69127;BME280;56688;50.234;19.292;2023-02-28T00:10:27;99752.01;;;-0.05;55.14
69127;BME280;56688;50.234;19.292;2023-02-28T00:12:56;99749.88;;;-0.07;54.45
69127;BME280;56688;50.234;19.292;2023-02-28T00:15:25;99754.33;;;-0.09;54.76
69127;BME280;56688;50.234;19.292;2023-02-28T00:17:53;99753.27;;;-0.12;54.59
69127;BME280;56688;50.234;19.292;2023-02-28T00:20:20;99755.02;;;-0.14;55.05
69127;BME280;56688;50.234;19.292;2023-02-28T00:22:49;99750.12;;;-0.18;54.83
69127;BME280;56688;50.234;19.292;2023-02-28T00:25:20;99751.73;;;-0.21;55.43
69127;BME280;56688;50.234;19.292;2023-02-28T00:27:48;99753.27;;;-0.26;55.80
69127;BME280;56688;50.234;19.292;2023-02-28T00:30:17;99749.38;;;-0.32;55.52
69127;BME280;56688;50.234;19.292;2023-02-28T00:32:44;99746.92;;;-0.38;54.33
69127;BME280;56688;50.234;19.292;2023-02-28T00:35:12;99747.41;;;-0.43;53.60
69127;BME280;56688;50.234;19.292;2023-02-28T00:37:40;99751.02;;;-0.48;53.92
69127;BME280;56688;50.234;19.292;2023-02-28T00:40:09;99757.66;;;-0.54;54.03
69127;BME280;56688;50.234;19.292;2023-02-28T00:42:38;99759.11;;;-0.61;54.06
69127;BME280;56688;50.234;19.292;2023-02-28T00:45:07;99754.55;;;-0.67;53.82
69127;BME280;56688;50.234;19.292;2023-02-28T00:47:37;99752.93;;;-0.72;54.32
69127;BME280;56688;50.234;19.292;2023-02-28T00:50:04;99753.29;;;-0.78;55.14
69127;BME280;56688;50.234;19.292;2023-02-28T00:52:31;99754.64;;;-0.84;55.61
69127;BME280;56688;50.234;19.292;2023-02-28T00:54:58;99757.55;;;-0.92;56.03
69127;BME280;56688;50.234;19.292;2023-02-28T00:57:26;99760.02;;;-1.02;56.71
69127;BME280;56688;50.234;19.292;2023-02-28T00:59:52;99760.56;;;-1.12;57.38
69127;BME280;56688;50.234;19.292;2023-02-28T01:02:22;99763.91;;;-1.22;58.00
69127;BME280;56688;50.234;19.292;2023-02-28T01:04:51;99763.04;;;-1.32;57.83
69127;BME280;56688;50.234;19.292;2023-02-28T01:07:18;99765.73;;;-1.40;57.97
69127;BME280;56688;50.234;19.292;2023-02-28T01:09:45;99765.13;;;-1.48;58.27
69127;BME280;56688;50.234;19.292;2023-02-28T01:12:12;99762.30;;;-1.54;58.79
69127;BME280;56688;50.234;19.292;2023-02-28T01:14:39;99761.59;;;-1.60;59.54
69127;BME280;56688;50.234;19.292;2023-02-28T01:17:06;99761.95;;;-1.67;60.00
69127;BME280;56688;50.234;19.292;2023-02-28T01:19:33;99762.32;;;-1.74;61.05
69127;BME280;56688;50.234;19.292;2023-02-28T01:22:04;99761.63;;;-1.81;61.79
69127;BME280;56688;50.234;19.292;2023-02-28T01:24:31;99757.69;;;-1.86;62.50
69127;BME280;56688;50.234;19.292;2023-02-28T01:27:00;99759.15;;;-1.90;62.24
69127;BME280;56688;50.234;19.292;2023-02-28T01:29:26;99764.05;;;-1.94;62.17
69127;BME280;56688;50.234;19.292;2023-02-28T01:31:53;99763.80;;;-1.96;62.23
69127;BME280;56688;50.234;19.292;2023-02-28T01:34:20;99764.64;;;-1.95;62.04
69127;BME280;56688;50.234;19.292;2023-02-28T01:36:47;99762.54;;;-1.96;61.90
69127;BME280;56688;50.234;19.292;2023-02-28T01:39:14;99762.66;;;-1.98;62.36
69127;BME280;56688;50.234;19.292;2023-02-28T01:41:41;99757.35;;;-2.03;61.88
69127;BME280;56688;50.234;19.292;2023-02-28T01:47:05;99760.23;;;-2.22;62.82
69127;BME280;56688;50.234;19.292;2023-02-28T01:49:32;99757.91;;;-2.28;63.08
69127;BME280;56688;50.234;19.292;2023-02-28T01:51:59;99761.66;;;-2.33;63.16
69127;BME280;56688;50.234;19.292;2023-02-28T01:54:29;99759.31;;;-2.38;63.52
69127;BME280;56688;50.234;19.292;2023-02-28T01:57:05;99762.02;;;-2.44;63.88
69127;BME280;56688;50.234;19.292;2023-02-28T01:59:41;99761.27;;;-2.50;64.47
69127;BME280;56688;50.234;19.292;2023-02-28T02:02:18;99756.25;;;-2.58;64.29
69127;BME280;56688;50.234;19.292;2023-02-28T02:04:51;99756.26;;;-2.68;64.48
69127;BME280;56688;50.234;19.292;2023-02-28T02:07:19;99751.75;;;-2.80;65.19
69127;BME280;56688;50.234;19.292;2023-02-28T02:09:47;99753.38;;;-2.89;65.57
69127;BME280;56688;50.234;19.292;2023-02-28T02:12:27;99750.54;;;-2.95;66.05
69127;BME280;56688;50.234;19.292;2023-02-28T02:17:46;99749.95;;;-2.97;67.17
69127;BME280;56688;50.234;19.292;2023-02-28T02:20:38;99747.34;;;-2.93;67.45
69127;BME280;56688;50.234;19.292;2023-02-28T02:29:17;99752.08;;;-2.94;67.35
69127;BME280;56688;50.234;19.292;2023-02-28T02:42:45;99744.98;;;-3.17;68.40
69127;BME280;56688;50.234;19.292;2023-02-28T02:45:22;99743.06;;;-3.25;68.66
69127;BME280;56688;50.234;19.292;2023-02-28T02:47:51;99739.09;;;-3.33;69.23
69127;BME280;56688;50.234;19.292;2023-02-28T02:50:24;99739.08;;;-3.41;69.53
69127;BME280;56688;50.234;19.292;2023-02-28T02:52:59;99740.23;;;-3.47;69.69
69127;BME280;56688;50.234;19.292;2023-02-28T02:55:31;99738.38;;;-3.51;70.08
69127;BME280;56688;50.234;19.292;2023-02-28T02:58:03;99738.82;;;-3.54;70.31
69127;BME280;56688;50.234;19.292;2023-02-28T03:00:34;99742.24;;;-3.52;70.37
69127;BME280;56688;50.234;19.292;2023-02-28T03:03:05;99738.78;;;-3.53;70.33
69127;BME280;56688;50.234;19.292;2023-02-28T03:05:41;99737.21;;;-3.49;70.57
69127;BME280;56688;50.234;19.292;2023-02-28T03:08:11;99744.79;;;-3.47;70.75
69127;BME280;56688;50.234;19.292;2023-02-28T03:23:38;99753.06;;;-3.57;71.15
69127;BME280;56688;50.234;19.292;2023-02-28T03:26:16;99757.27;;;-3.61;71.25
69127;BME280;56688;50.234;19.292;2023-02-28T03:36:17;99757.32;;;-3.58;72.56
69127;BME280;56688;50.234;19.292;2023-02-28T03:38:51;99762.70;;;-3.50;72.71
69127;BME280;56688;50.234;19.292;2023-02-28T03:41:23;99760.04;;;-3.45;72.90
69127;BME280;56688;50.234;19.292;2023-02-28T03:43:58;99761.48;;;-3.39;72.77
69127;BME280;56688;50.234;19.292;2023-02-28T03:46:28;99759.46;;;-3.37;72.46
69127;BME280;56688;50.234;19.292;2023-02-28T03:49:03;99761.34;;;-3.36;72.57
69127;BME280;56688;50.234;19.292;2023-02-28T03:51:33;99762.13;;;-3.38;72.25
69127;BME280;56688;50.234;19.292;2023-02-28T03:54:08;99765.79;;;-3.42;72.17
69127;BME280;56688;50.234;19.292;2023-02-28T03:56:39;99765.70;;;-3.47;72.13
69127;BME280;56688;50.234;19.292;2023-02-28T03:59:14;99767.55;;;-3.54;71.97
69127;BME280;56688;50.234;19.292;2023-02-28T04:01:46;99768.78;;;-3.62;71.99
69127;BME280;56688;50.234;19.292;2023-02-28T04:04:15;99770.80;;;-3.68;72.12
69127;BME280;56688;50.234;19.292;2023-02-28T04:06:43;99773.63;;;-3.73;72.13
69127;BME280;56688;50.234;19.292;2023-02-28T04:09:13;99776.71;;;-3.76;72.24
69127;BME280;56688;50.234;19.292;2023-02-28T04:11:42;99773.06;;;-3.76;72.56
69127;BME280;56688;50.234;19.292;2023-02-28T04:14:10;99772.95;;;-3.77;72.48
69127;BME280;56688;50.234;19.292;2023-02-28T04:16:40;99777.48;;;-3.78;72.57
69127;BME280;56688;50.234;19.292;2023-02-28T04:19:09;99775.84;;;-3.79;72.38
69127;BME280;56688;50.234;19.292;2023-02-28T04:21:39;99781.91;;;-3.83;72.22
69127;BME280;56688;50.234;19.292;2023-02-28T04:24:08;99784.91;;;-3.88;71.83
69127;BME280;56688;50.234;19.292;2023-02-28T04:26:41;99791.34;;;-3.96;71.72
69127;BME280;56688;50.234;19.292;2023-02-28T04:29:11;99789.67;;;-4.06;71.80
69127;BME280;56688;50.234;19.292;2023-02-28T04:31:39;99789.77;;;-4.12;71.76
69127;BME280;56688;50.234;19.292;2023-02-28T04:34:06;99792.49;;;-4.23;71.80
69127;BME280;56688;50.234;19.292;2023-02-28T04:36:33;99797.58;;;-4.32;71.71
69127;BME280;56688;50.234;19.292;2023-02-28T04:38:59;99802.20;;;-4.39;71.87
69127;BME280;56688;50.234;19.292;2023-02-28T04:41:26;99799.98;;;-4.44;72.19
69127;BME280;56688;50.234;19.292;2023-02-28T04:43:57;99799.98;;;-4.44;72.55
69127;BME280;56688;50.234;19.292;2023-02-28T04:46:24;99806.88;;;-4.43;72.61
69127;BME280;56688;50.234;19.292;2023-02-28T04:48:51;99804.42;;;-4.42;72.66
69127;BME280;56688;50.234;19.292;2023-02-28T04:51:18;99803.55;;;-4.42;72.53
69127;BME280;56688;50.234;19.292;2023-02-28T04:53:46;99804.54;;;-4.45;72.42
69127;BME280;56688;50.234;19.292;2023-02-28T04:56:16;99806.75;;;-4.52;72.81
69127;BME280;56688;50.234;19.292;2023-02-28T04:58:43;99803.77;;;-4.57;72.93
69127;BME280;56688;50.234;19.292;2023-02-28T05:01:26;99804.98;;;-4.60;72.83
69127;BME280;56688;50.234;19.292;2023-02-28T05:03:57;99806.84;;;-4.72;72.99
69127;BME280;56688;50.234;19.292;2023-02-28T05:06:26;99804.37;;;-4.94;73.63
69127;BME280;56688;50.234;19.292;2023-02-28T05:08:53;99802.85;;;-5.08;74.28
69127;BME280;56688;50.234;19.292;2023-02-28T05:13:49;99807.41;;;-5.23;74.95
69127;BME280;56688;50.234;19.292;2023-02-28T05:16:16;99809.08;;;-5.26;75.20
69127;BME280;56688;50.234;19.292;2023-02-28T05:18:44;99813.08;;;-5.31;75.30
69127;BME280;56688;50.234;19.292;2023-02-28T05:21:28;99812.21;;;-5.31;75.33
69127;BME280;56688;50.234;19.292;2023-02-28T05:24:00;99813.36;;;-5.39;75.47
69127;BME280;56688;50.234;19.292;2023-02-28T05:26:28;99810.48;;;-5.50;75.97
69127;BME280;56688;50.234;19.292;2023-02-28T05:28:55;99814.77;;;-5.58;76.28
69127;BME280;56688;50.234;19.292;2023-02-28T05:31:23;99821.58;;;-5.64;76.47
69127;BME280;56688;50.234;19.292;2023-02-28T05:33:50;99822.56;;;-5.67;76.70
69127;BME280;56688;50.234;19.292;2023-02-28T05:36:17;99822.70;;;-5.66;77.11
69127;BME280;56688;50.234;19.292;2023-02-28T05:38:46;99826.70;;;-5.62;77.35
69127;BME280;56688;50.234;19.292;2023-02-28T05:41:14;99833.71;;;-5.64;77.38
69127;BME280;56688;50.234;19.292;2023-02-28T05:43:41;99834.58;;;-5.64;77.71
69127;BME280;56688;50.234;19.292;2023-02-28T05:46:10;99839.47;;;-5.59;77.89
69127;BME280;56688;50.234;19.292;2023-02-28T05:48:39;99840.79;;;-5.52;78.09
69127;BME280;56688;50.234;19.292;2023-02-28T05:51:07;99838.77;;;-5.45;78.18
69127;BME280;56688;50.234;19.292;2023-02-28T05:53:34;99843.20;;;-5.38;78.52
69127;BME280;56688;50.234;19.292;2023-02-28T05:56:01;99849.23;;;-5.26;78.91
69127;BME280;56688;50.234;19.292;2023-02-28T05:58:29;99849.27;;;-5.18;78.80
69127;BME280;56688;50.234;19.292;2023-02-28T06:01:00;99850.25;;;-5.17;78.41
69127;BME280;56688;50.234;19.292;2023-02-28T06:03:27;99846.96;;;-5.12;78.52
69127;BME280;56688;50.234;19.292;2023-02-28T06:05:55;99848.77;;;-5.10;78.61
69127;BME280;56688;50.234;19.292;2023-02-28T06:08:21;99854.07;;;-5.03;79.09
69127;BME280;56688;50.234;19.292;2023-02-28T06:10:48;99856.07;;;-4.96;79.24
69127;BME280;56688;50.234;19.292;2023-02-28T06:13:15;99852.48;;;-4.88;79.34
69127;BME280;56688;50.234;19.292;2023-02-28T06:15:42;99848.50;;;-4.75;79.58
69127;BME280;56688;50.234;19.292;2023-02-28T06:18:09;99853.98;;;-4.60;79.47
69127;BME280;56688;50.234;19.292;2023-02-28T06:20:35;99858.23;;;-4.44;79.73
69127;BME280;56688;50.234;19.292;2023-02-28T06:23:03;99865.27;;;-4.20;80.00
69127;BME280;56688;50.234;19.292;2023-02-28T06:25:29;99872.28;;;-3.92;80.05
69127;BME280;56688;50.234;19.292;2023-02-28T06:27:56;99875.16;;;-3.57;80.22
69127;BME280;56688;50.234;19.292;2023-02-28T06:30:23;99873.78;;;-3.18;79.96
69127;BME280;56688;50.234;19.292;2023-02-28T06:32:54;99865.10;;;-2.76;79.57
69127;BME280;56688;50.234;19.292;2023-02-28T06:35:21;99862.27;;;-2.35;78.57
69127;BME280;56688;50.234;19.292;2023-02-28T06:37:48;99866.80;;;-1.85;77.32
69127;BME280;56688;50.234;19.292;2023-02-28T06:40:15;99864.64;;;-1.40;75.79
69127;BME280;56688;50.234;19.292;2023-02-28T06:42:42;99860.14;;;-1.01;73.98
69127;BME280;56688;50.234;19.292;2023-02-28T06:45:10;99858.10;;;-0.63;72.16
69127;BME280;56688;50.234;19.292;2023-02-28T06:47:39;99860.34;;;-0.31;70.53
69127;BME280;56688;50.234;19.292;2023-02-28T06:50:09;99857.03;;;0.02;69.28
69127;BME280;56688;50.234;19.292;2023-02-28T06:52:36;99857.64;;;0.40;67.62
69127;BME280;56688;50.234;19.292;2023-02-28T06:55:06;99859.69;;;0.79;65.99
69127;BME280;56688;50.234;19.292;2023-02-28T06:57:35;99863.59;;;1.23;64.23
69127;BME280;56688;50.234;19.292;2023-02-28T07:00:06;99858.88;;;1.67;62.71
69127;BME280;56688;50.234;19.292;2023-02-28T07:02:35;99858.34;;;2.13;61.10
69127;BME280;56688;50.234;19.292;2023-02-28T07:05:03;99866.14;;;2.61;59.48
69127;BME280;56688;50.234;19.292;2023-02-28T07:07:30;99867.74;;;3.07;57.66
69127;BME280;56688;50.234;19.292;2023-02-28T07:09:58;99866.76;;;3.50;56.52
69127;BME280;56688;50.234;19.292;2023-02-28T07:12:25;99865.79;;;3.88;55.24
69127;BME280;56688;50.234;19.292;2023-02-28T07:14:52;99868.57;;;4.24;54.21
69127;BME280;56688;50.234;19.292;2023-02-28T07:17:19;99875.76;;;4.67;52.79
69127;BME280;56688;50.234;19.292;2023-02-28T07:19:45;99872.66;;;5.00;52.05
69127;BME280;56688;50.234;19.292;2023-02-28T07:22:12;99870.33;;;5.29;50.41
69127;BME280;56688;50.234;19.292;2023-02-28T07:24:41;99867.30;;;5.59;49.19
69127;BME280;56688;50.234;19.292;2023-02-28T07:27:08;99869.59;;;5.76;48.34
69127;BME280;56688;50.234;19.292;2023-02-28T07:29:35;99868.09;;;5.91;47.67
69127;BME280;56688;50.234;19.292;2023-02-28T07:32:02;99868.04;;;6.06;47.36
69127;BME280;56688;50.234;19.292;2023-02-28T07:34:29;99866.73;;;6.16;46.81
69127;BME280;56688;50.234;19.292;2023-02-28T07:36:56;99868.45;;;6.25;46.39
69127;BME280;56688;50.234;19.292;2023-02-28T07:39:23;99868.20;;;6.07;46.08
69127;BME280;56688;50.234;19.292;2023-02-28T07:41:50;99868.64;;;5.93;46.93
69127;BME280;56688;50.234;19.292;2023-02-28T07:44:17;99870.71;;;5.88;47.00
69127;BME280;56688;50.234;19.292;2023-02-28T07:46:44;99868.31;;;5.85;46.88
69127;BME280;56688;50.234;19.292;2023-02-28T07:49:10;99868.64;;;5.73;46.35
69127;BME280;56688;50.234;19.292;2023-02-28T07:51:37;99864.03;;;5.51;46.65
69127;BME280;56688;50.234;19.292;2023-02-28T07:54:04;99872.19;;;5.26;47.24
69127;BME280;56688;50.234;19.292;2023-02-28T07:56:31;99869.17;;;5.06;47.14
69127;BME280;56688;50.234;19.292;2023-02-28T07:58:58;99873.25;;;4.90;47.77
69127;BME280;56688;50.234;19.292;2023-02-28T08:01:25;99874.33;;;4.83;48.13
69127;BME280;56688;50.234;19.292;2023-02-28T08:03:52;99870.88;;;4.82;48.26
69127;BME280;56688;50.234;19.292;2023-02-28T08:06:24;99870.23;;;4.88;48.08
69127;BME280;56688;50.234;19.292;2023-02-28T08:08:52;99870.98;;;5.01;48.32
69127;BME280;56688;50.234;19.292;2023-02-28T08:11:19;99867.35;;;5.23;48.28
69127;BME280;56688;50.234;19.292;2023-02-28T08:13:46;99862.88;;;5.39;46.90
69127;BME280;56688;50.234;19.292;2023-02-28T08:16:13;99859.60;;;5.58;46.67
69127;BME280;56688;50.234;19.292;2023-02-28T08:18:44;99860.45;;;5.67;45.33
69127;BME280;56688;50.234;19.292;2023-02-28T08:21:11;99864.90;;;5.73;44.60
69127;BME280;56688;50.234;19.292;2023-02-28T08:23:38;99870.55;;;5.75;43.54
69127;BME280;56688;50.234;19.292;2023-02-28T08:26:06;99869.68;;;5.60;42.76
69127;BME280;56688;50.234;19.292;2023-02-28T08:28:33;99871.85;;;5.22;42.89
69127;BME280;56688;50.234;19.292;2023-02-28T08:31:00;99874.59;;;4.95;42.94
69127;BME280;56688;50.234;19.292;2023-02-28T08:33:27;99875.95;;;4.76;43.24
69127;BME280;56688;50.234;19.292;2023-02-28T08:35:55;99876.39;;;4.63;43.95
69127;BME280;56688;50.234;19.292;2023-02-28T08:38:23;99875.91;;;4.51;43.96
69127;BME280;56688;50.234;19.292;2023-02-28T08:40:57;99874.69;;;4.27;44.46
69127;BME280;56688;50.234;19.292;2023-02-28T08:43:25;99877.14;;;3.99;45.11
69127;BME280;56688;50.234;19.292;2023-02-28T08:45:52;99877.98;;;3.80;46.11
69127;BME280;56688;50.234;19.292;2023-02-28T08:48:20;99874.32;;;3.63;46.13
69127;BME280;56688;50.234;19.292;2023-02-28T08:53:33;99879.05;;;3.56;46.59
69127;BME280;56688;50.234;19.292;2023-02-28T08:56:04;99878.98;;;3.52;46.81
69127;BME280;56688;50.234;19.292;2023-02-28T08:58:32;99877.09;;;3.61;47.16
69127;BME280;56688;50.234;19.292;2023-02-28T09:00:58;99879.05;;;3.87;46.63
69127;BME280;56688;50.234;19.292;2023-02-28T09:03:27;99882.17;;;4.07;45.69
69127;BME280;56688;50.234;19.292;2023-02-28T09:05:56;99883.52;;;4.34;45.66
69127;BME280;56688;50.234;19.292;2023-02-28T09:08:25;99882.77;;;4.74;44.42
69127;BME280;56688;50.234;19.292;2023-02-28T09:10:52;99876.11;;;5.03;43.23
69127;BME280;56688;50.234;19.292;2023-02-28T09:13:19;99874.59;;;5.12;43.66
69127;BME280;56688;50.234;19.292;2023-02-28T09:15:46;99879.91;;;5.26;43.52
69127;BME280;56688;50.234;19.292;2023-02-28T09:18:14;99882.69;;;5.36;43.33
69127;BME280;56688;50.234;19.292;2023-02-28T09:20:42;99878.21;;;5.37;42.63
69127;BME280;56688;50.234;19.292;2023-02-28T09:23:11;99872.99;;;5.45;42.19
69127;BME280;56688;50.234;19.292;2023-02-28T09:25:45;99874.99;;;5.42;41.95
69127;BME280;56688;50.234;19.292;2023-02-28T09:28:13;99876.89;;;5.14;42.53
69127;BME280;56688;50.234;19.292;2023-02-28T09:30:45;99876.76;;;4.99;43.30
69127;BME280;56688;50.234;19.292;2023-02-28T09:33:13;99875.31;;;4.93;42.92
69127;BME280;56688;50.234;19.292;2023-02-28T09:35:40;99873.34;;;4.89;43.10
69127;BME280;56688;50.234;19.292;2023-02-28T09:38:09;99872.70;;;4.90;43.23
69127;BME280;56688;50.234;19.292;2023-02-28T09:40:54;99872.80;;;4.93;42.87
69127;BME280;56688;50.234;19.292;2023-02-28T09:43:24;99873.00;;;4.93;42.52
69127;BME280;56688;50.234;19.292;2023-02-28T09:45:56;99873.92;;;4.88;42.49
69127;BME280;56688;50.234;19.292;2023-02-28T09:48:28;99873.06;;;4.90;43.02
69127;BME280;56688;50.234;19.292;2023-02-28T09:51:03;99876.54;;;5.02;43.03
69127;BME280;56688;50.234;19.292;2023-02-28T09:53:35;99876.38;;;5.27;42.31
69127;BME280;56688;50.234;19.292;2023-02-28T09:56:09;99871.29;;;5.64;41.82
69127;BME280;56688;50.234;19.292;2023-02-28T10:01:23;99871.79;;;6.29;39.61
69127;BME280;56688;50.234;19.292;2023-02-28T10:06:28;99862.77;;;7.43;38.81
69127;BME280;56688;50.234;19.292;2023-02-28T10:09:00;99860.52;;;8.12;38.34
69127;BME280;56688;50.234;19.292;2023-02-28T10:11:29;99863.82;;;8.85;36.54
69127;BME280;56688;50.234;19.292;2023-02-28T10:14:16;99868.02;;;9.29;35.07
69127;BME280;56688;50.234;19.292;2023-02-28T10:16:48;99864.60;;;9.38;34.82
69127;BME280;56688;50.234;19.292;2023-02-28T10:19:20;99859.86;;;9.69;35.02
69127;BME280;56688;50.234;19.292;2023-02-28T10:24:30;99860.09;;;9.83;33.64
69127;BME280;56688;50.234;19.292;2023-02-28T10:27:12;99850.73;;;9.83;34.43
69127;BME280;56688;50.234;19.292;2023-02-28T10:29:43;99847.30;;;9.87;34.26
69127;BME280;56688;50.234;19.292;2023-02-28T10:32:14;99846.17;;;9.87;33.62
69127;BME280;56688;50.234;19.292;2023-02-28T10:34:42;99839.93;;;9.77;34.01
69127;BME280;56688;50.234;19.292;2023-02-28T10:37:11;99839.44;;;9.63;33.77
69127;BME280;56688;50.234;19.292;2023-02-28T10:39:41;99837.76;;;9.57;33.89
69127;BME280;56688;50.234;19.292;2023-02-28T10:42:25;99843.64;;;9.62;34.07
69127;BME280;56688;50.234;19.292;2023-02-28T10:45:13;99836.92;;;9.71;33.47
69127;BME280;56688;50.234;19.292;2023-02-28T10:47:57;99838.27;;;9.48;33.65
69127;BME280;56688;50.234;19.292;2023-02-28T10:50:34;99839.77;;;9.19;34.08
69127;BME280;56688;50.234;19.292;2023-02-28T10:55:43;99830.70;;;8.82;34.28
69127;BME280;56688;50.234;19.292;2023-02-28T10:58:21;99830.07;;;8.85;35.39
69127;BME280;56688;50.234;19.292;2023-02-28T11:00:50;99826.48;;;8.99;34.89
69127;BME280;56688;50.234;19.292;2023-02-28T11:03:34;99819.74;;;9.04;34.51
69127;BME280;56688;50.234;19.292;2023-02-28T11:06:08;99819.05;;;9.04;34.60
69127;BME280;56688;50.234;19.292;2023-02-28T11:08:56;99822.13;;;8.73;34.20
69127;BME280;56688;50.234;19.292;2023-02-28T11:11:26;99825.06;;;8.36;34.61
69127;BME280;56688;50.234;19.292;2023-02-28T11:14:05;99824.93;;;8.24;35.38
69127;BME280;56688;50.234;19.292;2023-02-28T11:16:35;99821.17;;;8.17;35.49
69127;BME280;56688;50.234;19.292;2023-02-28T11:19:06;99817.92;;;8.21;35.36
69127;BME280;56688;50.234;19.292;2023-02-28T11:21:50;99815.01;;;8.27;35.29
69127;BME280;56688;50.234;19.292;2023-02-28T11:24:26;99811.92;;;8.28;35.58
69127;BME280;56688;50.234;19.292;2023-02-28T11:26:56;99808.70;;;8.17;36.60
69127;BME280;56688;50.234;19.292;2023-02-28T11:29:24;99802.12;;;8.31;36.79
69127;BME280;56688;50.234;19.292;2023-02-28T11:34:36;99791.23;;;8.92;35.49
69127;BME280;56688;50.234;19.292;2023-02-28T11:37:08;99783.36;;;9.11;35.18
69127;BME280;56688;50.234;19.292;2023-02-28T11:39:36;99787.17;;;9.25;34.26
69127;BME280;56688;50.234;19.292;2023-02-28T11:45:01;99776.34;;;9.34;34.45
69127;BME280;56688;50.234;19.292;2023-02-28T11:47:40;99773.78;;;9.55;33.85
69127;BME280;56688;50.234;19.292;2023-02-28T11:50:38;99772.10;;;9.69;33.10
69127;BME280;56688;50.234;19.292;2023-02-28T11:56:25;99765.59;;;9.57;33.46
69127;BME280;56688;50.234;19.292;2023-02-28T12:01:38;99763.46;;;9.99;32.44
69127;BME280;56688;50.234;19.292;2023-02-28T12:06:45;99761.31;;;10.18;32.43
69127;BME280;56688;50.234;19.292;2023-02-28T12:09:20;99756.05;;;10.11;32.51
69127;BME280;56688;50.234;19.292;2023-02-28T12:11:55;99757.64;;;9.86;32.54
69127;BME280;56688;50.234;19.292;2023-02-28T12:17:16;99758.49;;;9.88;33.60
69127;BME280;56688;50.234;19.292;2023-02-28T12:28:30;99752.17;;;10.11;32.62
69127;BME280;56688;50.234;19.292;2023-02-28T12:31:04;99753.48;;;10.28;32.49
69127;BME280;56688;50.234;19.292;2023-02-28T12:33:36;99748.78;;;10.71;31.86
69127;BME280;56688;50.234;19.292;2023-02-28T12:36:11;99746.73;;;11.32;31.66
69127;BME280;56688;50.234;19.292;2023-02-28T12:38:44;99747.59;;;11.99;30.57
69127;BME280;56688;50.234;19.292;2023-02-28T12:41:18;99745.91;;;12.56;29.51
69127;BME280;56688;50.234;19.292;2023-02-28T12:43:52;99740.17;;;12.90;28.59
69127;BME280;56688;50.234;19.292;2023-02-28T12:46:32;99737.63;;;13.14;28.76
69127;BME280;56688;50.234;19.292;2023-02-28T12:49:06;99736.96;;;13.37;28.25
69127;BME280;56688;50.234;19.292;2023-02-28T12:51:35;99738.27;;;13.70;27.66
69127;BME280;56688;50.234;19.292;2023-02-28T12:54:22;99733.30;;;14.07;26.71
69127;BME280;56688;50.234;19.292;2023-02-28T12:57:00;99727.98;;;13.81;26.38
69127;BME280;56688;50.234;19.292;2023-02-28T13:10:07;99721.52;;;15.51;25.21
69127;BME280;56688;50.234;19.292;2023-02-28T13:12:36;99727.79;;;15.80;24.83
69127;BME280;56688;50.234;19.292;2023-02-28T13:15:19;99729.34;;;16.05;24.57
69127;BME280;56688;50.234;19.292;2023-02-28T13:17:52;99731.41;;;16.19;24.33
69127;BME280;56688;50.234;19.292;2023-02-28T13:20:24;99727.94;;;16.25;23.96
69127;BME280;56688;50.234;19.292;2023-02-28T13:22:53;99720.75;;;16.40;23.67
69127;BME280;56688;50.234;19.292;2023-02-28T13:27:53;99714.90;;;16.79;22.96
69127;BME280;56688;50.234;19.292;2023-02-28T13:33:35;99713.23;;;17.27;22.47
69127;BME280;56688;50.234;19.292;2023-02-28T13:38:39;99708.77;;;17.39;22.43
69127;BME280;56688;50.234;19.292;2023-02-28T13:44:14;99717.73;;;16.43;23.02
69127;BME280;56688;50.234;19.292;2023-02-28T13:51:51;99712.77;;;15.73;24.16
69127;BME280;56688;50.234;19.292;2023-02-28T14:00:42;99702.30;;;15.34;25.05
69127;BME280;56688;50.234;19.292;2023-02-28T14:06:15;99694.71;;;15.30;24.04
69127;BME280;56688;50.234;19.292;2023-02-28T14:08:55;99692.38;;;15.43;24.03
69127;BME280;56688;50.234;19.292;2023-02-28T14:11:28;99684.66;;;15.42;23.64
69127;BME280;56688;50.234;19.292;2023-02-28T14:13:56;99686.02;;;15.42;23.81
69127;BME280;56688;50.234;19.292;2023-02-28T14:16:25;99684.39;;;15.40;23.75
69127;BME280;56688;50.234;19.292;2023-02-28T14:21:32;99684.20;;;15.60;23.52
69127;BME280;56688;50.234;19.292;2023-02-28T14:27:03;99686.70;;;15.73;23.11
69127;BME280;56688;50.234;19.292;2023-02-28T14:37:09;99681.68;;;15.19;23.70
69127;BME280;56688;50.234;19.292;2023-02-28T14:39:41;99680.41;;;15.21;23.78
69127;BME280;56688;50.234;19.292;2023-02-28T14:42:27;99674.38;;;14.98;23.74
69127;BME280;56688;50.234;19.292;2023-02-28T14:44:55;99671.09;;;14.67;23.96
69127;BME280;56688;50.234;19.292;2023-02-28T14:47:26;99667.94;;;14.33;24.81
69127;BME280;56688;50.234;19.292;2023-02-28T14:49:54;99668.08;;;14.05;24.90
69127;BME280;56688;50.234;19.292;2023-02-28T14:52:31;99675.73;;;13.74;25.54
69127;BME280;56688;50.234;19.292;2023-02-28T14:55:01;99675.96;;;13.57;26.01
69127;BME280;56688;50.234;19.292;2023-02-28T14:57:31;99679.14;;;13.51;26.10
69127;BME280;56688;50.234;19.292;2023-02-28T15:00:09;99679.18;;;13.41;26.05
69127;BME280;56688;50.234;19.292;2023-02-28T15:02:40;99677.80;;;13.23;26.30
69127;BME280;56688;50.234;19.292;2023-02-28T15:07:48;99679.25;;;12.77;27.22
69127;BME280;56688;50.234;19.292;2023-02-28T15:10:23;99675.21;;;12.67;27.78
69127;BME280;56688;50.234;19.292;2023-02-28T15:12:55;99676.59;;;12.64;27.82
69127;BME280;56688;50.234;19.292;2023-02-28T15:15:33;99681.25;;;12.53;27.94
69127;BME280;56688;50.234;19.292;2023-02-28T15:18:27;99685.85;;;11.98;28.12
69127;BME280;56688;50.234;19.292;2023-02-28T15:21:05;99685.84;;;11.01;29.48
69127;BME280;56688;50.234;19.292;2023-02-28T15:23:35;99693.56;;;10.09;30.68
69127;BME280;56688;50.234;19.292;2023-02-28T15:26:03;99696.11;;;9.36;31.92